createdAt,value
2023-04-16T00:00:53.105Z,6.1008
2023-04-16T00:01:53.850Z,6.2358
2023-04-16T00:02:54.657Z,6.1272
2023-04-16T00:03:55.935Z,6.0829
2023-04-16T00:04:56.746Z,6.0617
2023-04-16T00:05:57.358Z,6.0484
2023-04-16T00:06:58.051Z,6.0480
2023-04-16T00:07:58.662Z,6.0540
2023-04-16T00:08:59.323Z,6.0641
2023-04-16T00:10:00.008Z,6.0612
2023-04-16T00:11:00.673Z,6.0693
2023-04-16T00:12:01.332Z,6.0802
2023-04-16T00:13:02.053Z,6.0650
2023-04-16T00:14:02.663Z,6.0644
2023-04-16T00:15:03.332Z,6.1048
2023-04-16T00:16:03.994Z,6.0892
2023-04-16T00:17:04.736Z,6.0773
2023-04-16T00:18:05.459Z,6.0867
2023-04-16T00:19:06.133Z,6.0894
2023-04-16T00:20:06.775Z,6.0919
2023-04-16T00:21:07.441Z,6.1252
2023-04-16T00:22:08.117Z,6.1230
2023-04-16T00:23:08.814Z,6.1084
2023-04-16T00:24:09.451Z,6.1195
2023-04-16T00:25:10.100Z,6.1052
2023-04-16T00:26:10.739Z,6.1118
2023-04-16T00:27:11.722Z,6.1114
2023-04-16T00:28:12.337Z,6.1019
2023-04-16T00:29:13.003Z,6.1002
2023-04-16T00:30:13.623Z,6.0861
2023-04-16T00:31:14.568Z,6.0831
2023-04-16T00:32:15.248Z,6.0884
2023-04-16T00:33:15.900Z,6.0776
2023-04-16T00:34:18.408Z,6.0531
2023-04-16T00:35:19.066Z,6.0669
2023-04-16T00:36:19.943Z,6.0575
2023-04-16T00:37:20.570Z,6.0677
2023-04-16T00:38:21.230Z,6.0498
2023-04-16T00:39:21.999Z,6.0482
2023-04-16T00:40:22.683Z,6.0490
2023-04-16T00:41:23.298Z,6.0517
2023-04-16T00:42:23.994Z,6.0583
2023-04-16T00:43:24.636Z,6.0429
2023-04-16T00:44:25.297Z,6.0454
2023-04-16T00:45:25.956Z,6.0449
2023-04-16T00:46:26.680Z,6.0443
2023-04-16T00:47:27.310Z,6.0460
2023-04-16T00:48:28.017Z,6.0473
2023-04-16T00:49:28.646Z,6.0427
2023-04-16T00:50:29.314Z,6.0517
2023-04-16T00:51:29.997Z,6.0499
2023-04-16T00:52:30.621Z,6.0609
2023-04-16T00:53:31.295Z,6.0468
2023-04-16T00:54:31.959Z,6.0609
2023-04-16T00:55:32.633Z,6.0810
2023-04-16T00:56:33.278Z,6.0598
2023-04-16T00:57:33.981Z,6.0491
2023-04-16T00:58:34.643Z,6.0488
2023-04-16T00:59:35.288Z,6.0322
2023-04-16T01:00:35.933Z,6.0427
2023-04-16T01:01:36.616Z,6.0407
2023-04-16T01:02:37.336Z,6.0425
2023-04-16T01:03:38.179Z,6.0363
2023-04-16T01:04:38.877Z,6.0540
2023-04-16T01:05:39.544Z,6.0355
2023-04-16T01:06:40.260Z,6.0485
2023-04-16T01:07:40.904Z,6.0474
2023-04-16T01:08:41.534Z,6.0509
2023-04-16T01:09:42.208Z,6.0272
2023-04-16T01:10:42.872Z,6.0609
2023-04-16T01:11:43.493Z,6.0526
2023-04-16T01:12:44.130Z,6.0540
2023-04-16T01:13:44.778Z,6.0449
2023-04-16T01:14:45.878Z,6.0528
2023-04-16T01:15:46.530Z,6.0460
2023-04-16T01:16:47.184Z,6.0347
2023-04-16T01:17:47.856Z,6.0427
2023-04-16T01:18:48.483Z,6.0410
2023-04-16T01:19:49.173Z,6.0477
2023-04-16T01:20:49.870Z,6.0491
2023-04-16T01:21:50.550Z,6.0543
2023-04-16T01:22:51.254Z,6.0609
2023-04-16T01:23:51.928Z,6.0813
2023-04-16T01:24:52.666Z,6.0785
2023-04-16T01:25:53.365Z,6.0523
2023-04-16T01:26:54.047Z,6.0506
2023-04-16T01:27:54.728Z,6.0305
2023-04-16T01:28:55.400Z,6.0568
2023-04-16T01:29:56.092Z,6.0251
2023-04-16T01:30:56.799Z,6.0239
2023-04-16T01:31:57.468Z,6.0182
2023-04-16T01:32:58.200Z,6.0168
2023-04-16T01:33:59.118Z,5.9990
2023-04-16T01:34:59.818Z,5.9890
2023-04-16T01:36:00.587Z,5.9939
2023-04-16T01:37:01.419Z,5.9858
2023-04-16T01:38:02.091Z,6.0097
2023-04-16T01:39:02.764Z,6.0268
2023-04-16T01:40:03.453Z,6.0113
2023-04-16T01:41:04.163Z,6.0082
2023-04-16T01:42:04.897Z,6.0118
2023-04-16T01:43:05.603Z,6.0030
2023-04-16T01:44:06.297Z,5.9946
2023-04-16T01:45:06.979Z,5.9915
2023-04-16T01:46:07.682Z,5.9825
2023-04-16T01:47:08.362Z,5.9778
2023-04-16T01:48:09.079Z,5.9950
2023-04-16T01:49:09.949Z,6.0014
2023-04-16T01:50:10.700Z,5.9915
2023-04-16T01:51:11.658Z,5.9972
2023-04-16T01:52:12.331Z,5.9923
2023-04-16T01:53:13.012Z,5.9931
2023-04-16T01:54:13.686Z,5.9951
2023-04-16T01:55:14.404Z,6.0050
2023-04-16T01:56:15.106Z,5.9975
2023-04-16T01:57:15.776Z,5.9956
2023-04-16T01:58:16.439Z,5.9786
2023-04-16T01:59:17.358Z,5.9719
2023-04-16T02:00:18.043Z,5.9841
2023-04-16T02:01:18.809Z,5.9698
2023-04-16T02:02:19.575Z,5.9648
2023-04-16T02:03:20.419Z,5.9618
2023-04-16T02:04:21.144Z,5.9555
2023-04-16T06:48:58.668Z,5.9634
2023-04-16T06:48:58.668Z,5.9445
2023-04-16T06:49:52.696Z,5.8977
2023-04-16T06:50:53.493Z,5.8665
2023-04-16T06:51:54.167Z,5.8490
2023-04-16T06:52:54.856Z,5.8819
2023-04-16T06:53:55.659Z,5.8542
2023-04-16T06:54:56.407Z,5.9119
2023-04-16T06:55:57.227Z,5.9043
2023-04-16T06:56:58.150Z,5.9340
2023-04-16T06:57:58.771Z,5.8762
2023-04-16T06:58:59.452Z,5.8357
2023-04-16T07:00:00.243Z,5.8919
2023-04-16T07:01:00.995Z,5.8539
2023-04-16T07:02:01.873Z,5.8804
2023-04-16T07:03:03.130Z,5.8563
2023-04-16T07:04:04.041Z,5.9431
2023-04-16T07:05:04.852Z,5.8976
2023-04-16T07:06:05.532Z,5.8525
2023-04-16T07:07:06.238Z,5.8819
2023-04-16T07:08:06.951Z,5.8151
2023-04-16T07:09:07.788Z,5.8929
2023-04-16T07:10:08.555Z,6.0619
2023-04-16T07:11:09.262Z,5.9017
2023-04-16T07:12:09.933Z,5.9183
2023-04-16T07:13:10.864Z,5.9045
2023-04-16T07:14:11.746Z,5.9378
2023-04-16T07:15:12.418Z,5.8938
2023-04-16T07:16:13.469Z,5.8589
2023-04-16T07:17:14.145Z,5.7879
2023-04-16T07:18:14.848Z,5.6767
2023-04-16T07:19:15.547Z,5.6696
2023-04-16T07:20:16.262Z,5.6596
2023-04-16T07:21:17.478Z,5.7655
2023-04-16T07:22:18.114Z,5.8919
2023-04-16T07:23:18.820Z,5.6985
2023-04-16T07:24:19.570Z,5.7190
2023-04-16T07:25:20.252Z,5.7353
2023-04-16T07:26:20.929Z,5.8803
2023-04-16T07:27:21.751Z,5.8470
2023-04-16T07:28:22.410Z,5.7223
2023-04-16T07:29:23.290Z,5.7997
2023-04-16T07:30:24.098Z,5.8795
2023-04-16T07:31:24.835Z,5.6973
2023-04-16T07:32:25.626Z,5.8771
2023-04-16T07:33:26.559Z,5.8556
2023-04-16T07:34:27.293Z,5.8591
2023-04-16T07:35:27.982Z,5.7716
2023-04-16T07:36:28.646Z,5.7981
2023-04-16T07:37:29.369Z,5.7824
2023-04-16T07:38:30.026Z,5.7619
2023-04-16T07:39:30.717Z,5.7920
2023-04-16T07:40:31.427Z,5.8132
2023-04-16T07:41:32.367Z,5.7802
2023-04-16T07:42:33.035Z,5.8845
2023-04-16T07:47:58.135Z,5.7559
2023-04-16T07:47:58.135Z,5.7336
2023-04-16T07:48:51.853Z,6.1434
2023-04-16T07:49:52.769Z,5.8618
2023-04-16T07:50:53.455Z,5.6819
2023-04-16T07:51:54.381Z,5.8575
2023-04-16T07:52:55.242Z,6.0165
2023-04-16T07:53:56.000Z,5.8712
2023-04-16T07:54:56.859Z,5.7749
2023-04-16T07:55:57.732Z,5.6744
2023-04-16T07:56:58.478Z,5.7000
2023-04-16T07:57:59.689Z,5.7364
2023-04-16T07:59:07.833Z,5.8487
2023-04-16T08:00:03.738Z,6.0385
2023-04-16T08:01:04.420Z,5.9734
2023-04-16T08:02:05.186Z,5.8619
2023-04-16T08:03:06.011Z,6.1836
2023-04-16T08:04:07.087Z,6.1324
2023-04-16T08:05:07.865Z,5.9437
2023-04-16T08:06:08.568Z,5.9455
2023-04-16T08:07:09.241Z,5.9189
2023-04-16T08:08:11.457Z,5.7798
2023-04-16T08:09:12.294Z,5.7611
2023-04-16T08:10:13.043Z,5.9554
2023-04-16T08:11:13.848Z,6.0589
2023-04-16T08:12:14.546Z,5.9665
2023-04-16T08:18:09.950Z,5.9606
2023-04-16T08:18:09.950Z,6.0412
2023-04-16T08:19:10.970Z,6.1027
2023-04-16T08:20:15.060Z,6.0949
2023-04-16T08:21:15.328Z,6.1204
2023-04-16T08:22:16.305Z,5.9695
2023-04-16T08:23:17.208Z,6.1004
2023-04-16T08:24:17.918Z,6.1142
2023-04-16T08:25:18.605Z,6.0363
2023-04-16T08:26:19.561Z,6.2001
2023-04-16T08:27:20.502Z,6.0859
2023-04-16T08:28:21.230Z,6.0638
2023-04-16T08:29:22.388Z,6.1016
2023-04-16T08:30:23.064Z,6.0603
2023-04-16T08:31:23.836Z,6.0958
2023-04-16T08:32:24.637Z,6.1838
2023-04-16T08:33:25.636Z,6.2879
2023-04-16T08:34:26.368Z,6.1575
2023-04-16T08:35:27.112Z,6.0941
2023-04-16T08:36:27.853Z,6.0661
2023-04-16T08:37:28.542Z,6.1968
2023-04-16T08:38:29.505Z,6.1616
2023-04-16T08:39:30.183Z,6.1426
2023-04-16T08:40:30.950Z,6.0757
2023-04-16T08:41:31.648Z,6.0878
2023-04-16T08:42:32.394Z,6.3069
2023-04-16T08:43:33.093Z,6.1721
2023-04-16T08:44:33.808Z,6.2086
2023-04-16T08:45:34.565Z,6.2903
2023-04-16T08:46:35.311Z,6.4045
2023-04-16T08:47:36.019Z,6.4178
2023-04-16T08:48:36.727Z,6.3823
2023-04-16T08:49:37.434Z,6.3663
2023-04-16T08:50:38.406Z,6.3303
2023-04-16T08:51:39.225Z,6.2648
2023-04-16T08:52:39.912Z,6.1305
2023-04-16T08:53:40.738Z,6.1516
2023-04-16T08:54:41.496Z,6.3986
2023-04-16T08:55:42.289Z,6.2004
2023-04-16T11:00:38.375Z,6.2400
2023-04-16T11:00:38.375Z,6.4786
2023-04-16T11:26:09.643Z,6.9032
2023-04-16T11:26:09.643Z,6.6228
2023-04-16T11:41:49.429Z,7.4372
2023-04-16T11:41:49.429Z,7.4372
2023-04-16T11:42:20.271Z,7.0741
2023-04-16T11:43:21.076Z,7.1251
2023-04-16T11:44:21.949Z,7.1811
2023-04-16T11:45:22.931Z,6.9266
2023-04-16T11:46:27.841Z,6.9509
2023-04-16T11:47:25.994Z,7.0128
2023-04-16T11:48:26.917Z,6.8371
2023-04-16T11:49:27.715Z,6.9068
2023-04-16T11:50:28.533Z,6.9874
2023-04-16T11:51:29.368Z,6.9770
2023-04-16T11:52:30.239Z,6.9101
2023-04-16T11:53:31.052Z,6.8474
2023-04-16T11:54:31.819Z,6.9600
2023-04-16T11:55:32.623Z,7.0482
2023-04-16T11:56:33.469Z,7.2616
2023-04-16T11:57:35.782Z,7.0819
2023-04-16T11:58:36.821Z,6.9533
2023-04-16T11:59:36.751Z,7.1910
2023-04-16T12:00:38.351Z,7.2722
2023-04-16T12:01:40.777Z,7.3515
2023-04-16T12:02:43.403Z,7.0579
2023-04-16T12:03:46.066Z,7.0086
2023-04-16T12:42:25.168Z,6.9392
2023-04-16T12:42:25.168Z,6.9886
2023-04-16T13:08:26.719Z,7.6776
2023-04-16T13:08:26.719Z,7.4239
2023-04-16T13:08:57.038Z,7.3545
2023-04-16T13:09:57.797Z,7.3615
2023-04-16T13:10:58.601Z,7.4517
2023-04-16T13:11:59.401Z,7.6627
2023-04-16T13:13:00.258Z,7.8892
2023-04-16T13:14:01.086Z,7.9198
2023-04-16T13:15:02.193Z,7.8898
2023-04-16T13:16:02.973Z,7.8354
2023-04-16T13:17:03.769Z,7.8243
2023-04-16T13:18:04.642Z,7.8265
2023-04-16T13:19:05.440Z,7.9545
2023-04-16T13:20:06.205Z,7.7709
2023-04-16T13:21:07.003Z,7.7951
2023-04-16T13:22:08.589Z,7.5400
2023-04-16T13:23:09.367Z,7.2111
2023-04-16T13:24:10.123Z,7.2002
2023-04-16T13:25:10.873Z,7.4109
2023-04-16T13:26:11.597Z,7.2874
2023-04-16T13:27:12.364Z,7.3450
2023-04-16T13:28:13.106Z,7.3163
2023-04-16T13:29:13.853Z,7.4870
2023-04-16T13:30:14.587Z,7.3337
2023-04-16T13:31:15.388Z,7.2184
2023-04-16T13:32:16.113Z,7.3369
2023-04-16T13:33:16.978Z,7.4033
2023-04-16T13:34:17.719Z,7.5076
2023-04-16T13:35:18.445Z,7.7035
2023-04-16T13:36:19.220Z,7.7201
2023-04-16T13:37:19.951Z,7.7552
2023-04-16T13:38:20.719Z,7.6711
2023-04-16T13:39:21.617Z,7.5137
2023-04-16T13:40:22.295Z,7.5518
2023-04-16T13:41:23.066Z,7.5203
2023-04-16T13:42:24.142Z,7.4572
2023-04-16T13:43:24.909Z,7.6818
2023-04-16T13:44:25.656Z,7.7194
2023-04-16T13:45:26.414Z,7.9097
2023-04-16T13:46:27.147Z,8.0695
2023-04-16T13:47:27.889Z,7.9704
2023-04-16T13:48:28.688Z,8.3284
2023-04-16T13:49:29.743Z,7.8160
2023-04-16T13:50:30.555Z,7.6524
2023-04-16T13:51:32.132Z,7.6005
2023-04-16T13:52:32.929Z,7.5507
2023-04-16T13:53:33.745Z,7.6521
2023-04-16T13:54:34.737Z,7.7869
2023-04-16T13:55:35.605Z,7.5769
2023-04-16T13:56:36.405Z,7.7150
2023-04-16T13:57:37.198Z,7.7434
2023-04-16T13:58:38.570Z,7.8213
2023-04-16T13:59:40.573Z,7.4806
2023-04-16T14:00:41.413Z,7.4973
2023-04-16T14:01:42.218Z,7.8098
2023-04-16T14:02:43.176Z,7.9049
2023-04-16T14:03:44.364Z,7.8797
2023-04-16T14:04:45.555Z,7.8058
2023-04-16T14:05:47.133Z,7.6154
2023-04-16T14:06:48.508Z,7.7190
2023-04-16T14:07:49.567Z,7.4426
2023-04-16T14:08:50.383Z,7.4168
2023-04-16T14:09:51.156Z,7.4517
2023-04-16T14:10:52.638Z,7.4669
2023-04-16T14:11:54.656Z,7.4383
2023-04-16T14:12:55.391Z,7.4847
2023-04-16T14:13:56.234Z,7.3353
2023-04-16T14:14:57.009Z,7.4027
2023-04-16T14:15:57.869Z,7.7819
2023-04-16T14:16:59.669Z,7.5840
2023-04-16T14:18:00.660Z,7.4716
2023-04-16T14:19:01.571Z,7.4258
2023-04-16T14:20:03.025Z,7.5020
2023-04-16T14:21:03.736Z,7.5210
2023-04-16T14:22:04.576Z,7.5200
2023-04-16T14:23:05.305Z,7.5989
2023-04-16T14:24:06.063Z,7.5401
2023-04-16T14:25:06.815Z,7.4077
2023-04-16T14:26:07.641Z,7.5139
2023-04-16T14:27:08.507Z,7.5439
2023-04-16T14:28:09.298Z,7.5359
2023-04-16T14:29:10.741Z,7.5731
2023-04-16T14:30:11.638Z,7.5444
2023-04-16T14:31:12.520Z,7.4858
2023-04-16T14:32:13.775Z,7.5067
2023-04-16T14:33:14.540Z,7.4088
2023-04-16T14:34:15.553Z,7.3524
2023-04-16T14:35:16.300Z,7.5310
2023-04-16T14:36:17.233Z,7.4570
2023-04-16T14:37:17.983Z,7.4424
2023-04-16T14:38:18.850Z,7.5028
2023-04-16T14:39:19.647Z,7.3790
2023-04-16T14:40:20.615Z,7.3953
2023-04-16T14:41:21.466Z,7.4969
2023-04-16T14:42:22.257Z,7.4826
2023-04-16T14:43:23.554Z,7.5117
2023-04-16T14:44:25.087Z,7.4899
2023-04-16T14:45:25.886Z,7.3750
2023-04-16T14:46:26.655Z,7.4528
2023-04-16T14:47:27.413Z,7.6187
2023-04-16T14:48:28.235Z,7.5642
2023-04-16T14:49:29.079Z,7.7707
2023-04-16T14:50:30.117Z,8.0662
2023-04-16T14:51:30.919Z,7.7866
2023-04-16T14:52:31.774Z,7.5998
2023-04-16T14:53:32.694Z,7.6053
2023-04-16T14:54:33.544Z,7.5642
2023-04-16T14:55:34.383Z,7.4446
2023-04-16T14:56:35.405Z,7.6042
2023-04-16T14:57:36.239Z,7.7376
2023-04-16T14:58:38.647Z,7.5683
2023-04-16T14:59:40.689Z,7.4522
2023-04-16T15:00:41.561Z,7.4968
2023-04-16T15:01:42.397Z,7.3177
2023-04-16T15:02:43.371Z,7.3724
2023-04-16T15:03:45.732Z,7.6746
2023-04-16T15:04:47.842Z,7.7412
2023-04-16T15:05:49.702Z,7.4947
2023-04-16T15:06:55.515Z,7.2491
